sensor_id;sensor_type;location;lat;lon;timestamp;P1;durP1;ratioP1;P2;durP2;ratioP2
17658;SDS011;8948;51.534;8.262;2022-12-29T00:01:53;1.20;;;1.10;;
17658;SDS011;8948;51.534;8.262;2022-12-29T00:06:53;1.20;;;1.10;;
17658;SDS011;8948;51.534;8.262;2022-12-29T00:11:55;2.33;;;1.20;;
17658;SDS011;8948;51.534;8.262;2022-12-29T00:16:56;1.40;;;1.20;;
17658;SDS011;8948;51.534;8.262;2022-12-29T00:21:57;1.20;;;1.10;;
17658;SDS011;8948;51.534;8.262;2022-12-29T00:27:17;2.50;;;1.30;;
17658;SDS011;8948;51.534;8.262;2022-12-29T00:32:36;0.90;;;0.90;;
17658;SDS011;8948;51.534;8.262;2022-12-29T00:37:55;1.67;;;1.10;;
17658;SDS011;8948;51.534;8.262;2022-12-29T00:43:17;1.20;;;1.10;;
17658;SDS011;8948;51.534;8.262;2022-12-29T00:48:37;1.23;;;1.00;;
17658;SDS011;8948;51.534;8.262;2022-12-29T00:53:56;2.60;;;1.10;;
17658;SDS011;8948;51.534;8.262;2022-12-29T00:58:59;1.53;;;1.27;;
17658;SDS011;8948;51.534;8.262;2022-12-29T01:04:04;1.00;;;1.00;;
17658;SDS011;8948;51.534;8.262;2022-12-29T01:09:05;1.13;;;1.00;;
17658;SDS011;8948;51.534;8.262;2022-12-29T01:19:35;1.63;;;0.97;;
17658;SDS011;8948;51.534;8.262;2022-12-29T01:24:36;1.00;;;0.90;;
17658;SDS011;8948;51.534;8.262;2022-12-29T01:29:37;1.10;;;1.00;;
17658;SDS011;8948;51.534;8.262;2022-12-29T01:34:37;1.17;;;0.80;;
17658;SDS011;8948;51.534;8.262;2022-12-29T01:39:38;1.57;;;0.90;;
17658;SDS011;8948;51.534;8.262;2022-12-29T01:44:47;1.43;;;0.97;;
17658;SDS011;8948;51.534;8.262;2022-12-29T01:50:02;1.00;;;1.00;;
17658;SDS011;8948;51.534;8.262;2022-12-29T01:55:09;0.83;;;0.83;;
17658;SDS011;8948;51.534;8.262;2022-12-29T02:00:12;1.70;;;0.97;;
17658;SDS011;8948;51.534;8.262;2022-12-29T02:05:15;0.90;;;0.90;;
17658;SDS011;8948;51.534;8.262;2022-12-29T02:10:36;1.43;;;0.90;;
17658;SDS011;8948;51.534;8.262;2022-12-29T02:26:23;0.80;;;0.80;;
17658;SDS011;8948;51.534;8.262;2022-12-29T02:31:46;0.80;;;0.80;;
17658;SDS011;8948;51.534;8.262;2022-12-29T02:37:22;1.57;;;1.00;;
17658;SDS011;8948;51.534;8.262;2022-12-29T02:42:36;1.03;;;0.90;;
17658;SDS011;8948;51.534;8.262;2022-12-29T02:47:49;1.10;;;1.00;;
17658;SDS011;8948;51.534;8.262;2022-12-29T02:52:58;1.33;;;0.90;;
17658;SDS011;8948;51.534;8.262;2022-12-29T02:58:18;1.63;;;0.80;;
17658;SDS011;8948;51.534;8.262;2022-12-29T03:03:23;1.63;;;0.90;;
17658;SDS011;8948;51.534;8.262;2022-12-29T03:19:35;2.77;;;1.20;;
17658;SDS011;8948;51.534;8.262;2022-12-29T03:24:40;1.83;;;1.00;;
17658;SDS011;8948;51.534;8.262;2022-12-29T03:29:47;1.80;;;0.90;;
17658;SDS011;8948;51.534;8.262;2022-12-29T03:34:54;1.20;;;0.93;;
17658;SDS011;8948;51.534;8.262;2022-12-29T03:39:55;3.50;;;1.10;;
17658;SDS011;8948;51.534;8.262;2022-12-29T03:44:56;2.80;;;1.10;;
17658;SDS011;8948;51.534;8.262;2022-12-29T03:49:57;1.20;;;0.93;;
17658;SDS011;8948;51.534;8.262;2022-12-29T03:54:58;1.43;;;1.10;;
17658;SDS011;8948;51.534;8.262;2022-12-29T03:59:58;4.73;;;1.03;;
17658;SDS011;8948;51.534;8.262;2022-12-29T04:04:59;2.40;;;0.97;;
17658;SDS011;8948;51.534;8.262;2022-12-29T04:09:59;1.33;;;1.17;;
17658;SDS011;8948;51.534;8.262;2022-12-29T04:15:00;1.00;;;0.90;;
17658;SDS011;8948;51.534;8.262;2022-12-29T04:20:00;1.10;;;1.00;;
17658;SDS011;8948;51.534;8.262;2022-12-29T04:25:19;1.03;;;0.93;;
17658;SDS011;8948;51.534;8.262;2022-12-29T04:30:20;1.10;;;1.00;;
17658;SDS011;8948;51.534;8.262;2022-12-29T04:35:20;3.00;;;0.90;;
17658;SDS011;8948;51.534;8.262;2022-12-29T04:40:21;2.00;;;0.90;;
17658;SDS011;8948;51.534;8.262;2022-12-29T04:45:23;0.80;;;0.80;;
17658;SDS011;8948;51.534;8.262;2022-12-29T04:50:23;1.63;;;0.80;;
17658;SDS011;8948;51.534;8.262;2022-12-29T04:55:24;1.10;;;0.90;;
17658;SDS011;8948;51.534;8.262;2022-12-29T05:00:24;0.90;;;0.90;;
17658;SDS011;8948;51.534;8.262;2022-12-29T05:05:25;0.80;;;0.80;;
17658;SDS011;8948;51.534;8.262;2022-12-29T05:10:26;1.93;;;1.00;;
17658;SDS011;8948;51.534;8.262;2022-12-29T05:15:26;1.10;;;0.73;;
17658;SDS011;8948;51.534;8.262;2022-12-29T05:20:27;1.63;;;1.00;;
17658;SDS011;8948;51.534;8.262;2022-12-29T05:25:27;1.00;;;0.90;;
17658;SDS011;8948;51.534;8.262;2022-12-29T05:30:28;1.43;;;1.00;;
17658;SDS011;8948;51.534;8.262;2022-12-29T05:35:28;1.10;;;1.00;;
17658;SDS011;8948;51.534;8.262;2022-12-29T05:40:29;2.53;;;1.17;;
17658;SDS011;8948;51.534;8.262;2022-12-29T05:45:29;3.43;;;1.00;;
17658;SDS011;8948;51.534;8.262;2022-12-29T05:50:30;1.70;;;1.03;;
17658;SDS011;8948;51.534;8.262;2022-12-29T05:55:30;3.07;;;1.00;;
17658;SDS011;8948;51.534;8.262;2022-12-29T06:00:31;0.80;;;0.80;;
17658;SDS011;8948;51.534;8.262;2022-12-29T06:05:32;1.70;;;0.90;;
17658;SDS011;8948;51.534;8.262;2022-12-29T06:10:32;1.40;;;0.90;;
17658;SDS011;8948;51.534;8.262;2022-12-29T06:15:33;3.23;;;0.90;;
17658;SDS011;8948;51.534;8.262;2022-12-29T06:20:34;1.73;;;0.80;;
17658;SDS011;8948;51.534;8.262;2022-12-29T06:25:34;1.20;;;1.07;;
17658;SDS011;8948;51.534;8.262;2022-12-29T06:30:35;3.93;;;1.10;;
17658;SDS011;8948;51.534;8.262;2022-12-29T06:35:36;1.53;;;0.90;;
17658;SDS011;8948;51.534;8.262;2022-12-29T06:40:37;2.53;;;1.10;;
17658;SDS011;8948;51.534;8.262;2022-12-29T06:45:38;0.87;;;0.80;;
17658;SDS011;8948;51.534;8.262;2022-12-29T06:50:39;1.37;;;0.93;;
17658;SDS011;8948;51.534;8.262;2022-12-29T06:55:41;0.80;;;0.80;;
17658;SDS011;8948;51.534;8.262;2022-12-29T07:00:42;0.80;;;0.80;;
17658;SDS011;8948;51.534;8.262;2022-12-29T07:05:42;1.03;;;0.80;;
17658;SDS011;8948;51.534;8.262;2022-12-29T07:10:43;4.17;;;0.90;;
17658;SDS011;8948;51.534;8.262;2022-12-29T07:15:43;1.20;;;1.10;;
17658;SDS011;8948;51.534;8.262;2022-12-29T07:20:44;2.17;;;0.90;;
17658;SDS011;8948;51.534;8.262;2022-12-29T07:25:44;3.13;;;1.00;;
17658;SDS011;8948;51.534;8.262;2022-12-29T07:30:46;1.20;;;0.90;;
17658;SDS011;8948;51.534;8.262;2022-12-29T07:35:47;1.10;;;1.00;;
17658;SDS011;8948;51.534;8.262;2022-12-29T07:40:48;1.70;;;1.23;;
17658;SDS011;8948;51.534;8.262;2022-12-29T07:45:48;1.70;;;1.07;;
17658;SDS011;8948;51.534;8.262;2022-12-29T07:50:49;3.20;;;1.03;;
17658;SDS011;8948;51.534;8.262;2022-12-29T07:55:50;2.23;;;1.00;;
17658;SDS011;8948;51.534;8.262;2022-12-29T08:00:54;1.37;;;1.00;;
17658;SDS011;8948;51.534;8.262;2022-12-29T08:05:56;1.93;;;0.90;;
17658;SDS011;8948;51.534;8.262;2022-12-29T08:10:56;1.07;;;0.90;;
17658;SDS011;8948;51.534;8.262;2022-12-29T08:15:57;1.03;;;0.90;;
17658;SDS011;8948;51.534;8.262;2022-12-29T08:21:02;2.47;;;1.00;;
17658;SDS011;8948;51.534;8.262;2022-12-29T08:26:04;2.80;;;0.90;;
17658;SDS011;8948;51.534;8.262;2022-12-29T08:31:06;1.80;;;1.23;;
17658;SDS011;8948;51.534;8.262;2022-12-29T08:36:06;1.03;;;0.90;;
17658;SDS011;8948;51.534;8.262;2022-12-29T08:41:07;1.50;;;1.00;;
17658;SDS011;8948;51.534;8.262;2022-12-29T08:46:08;1.07;;;0.97;;
17658;SDS011;8948;51.534;8.262;2022-12-29T08:51:08;0.70;;;0.70;;
17658;SDS011;8948;51.534;8.262;2022-12-29T08:56:09;2.07;;;1.10;;
17658;SDS011;8948;51.534;8.262;2022-12-29T09:01:11;2.47;;;1.03;;
17658;SDS011;8948;51.534;8.262;2022-12-29T09:06:12;1.30;;;1.07;;
17658;SDS011;8948;51.534;8.262;2022-12-29T09:11:15;9.53;;;1.40;;
17658;SDS011;8948;51.534;8.262;2022-12-29T09:16:22;3.77;;;1.40;;
17658;SDS011;8948;51.534;8.262;2022-12-29T09:21:23;3.13;;;1.30;;
17658;SDS011;8948;51.534;8.262;2022-12-29T09:26:23;2.70;;;1.40;;
17658;SDS011;8948;51.534;8.262;2022-12-29T09:31:24;7.30;;;1.40;;
17658;SDS011;8948;51.534;8.262;2022-12-29T09:36:25;6.80;;;1.30;;
17658;SDS011;8948;51.534;8.262;2022-12-29T09:46:52;3.83;;;1.20;;
17658;SDS011;8948;51.534;8.262;2022-12-29T09:52:03;3.07;;;1.50;;
17658;SDS011;8948;51.534;8.262;2022-12-29T09:57:26;2.10;;;1.23;;
17658;SDS011;8948;51.534;8.262;2022-12-29T10:02:39;3.63;;;1.30;;
17658;SDS011;8948;51.534;8.262;2022-12-29T10:08:04;3.80;;;1.30;;
17658;SDS011;8948;51.534;8.262;2022-12-29T10:24:07;3.70;;;1.73;;
17658;SDS011;8948;51.534;8.262;2022-12-29T10:29:13;5.60;;;1.57;;
17658;SDS011;8948;51.534;8.262;2022-12-29T10:34:22;5.70;;;1.40;;
17658;SDS011;8948;51.534;8.262;2022-12-29T10:39:49;7.10;;;1.80;;
17658;SDS011;8948;51.534;8.262;2022-12-29T10:44:51;5.13;;;1.43;;
17658;SDS011;8948;51.534;8.262;2022-12-29T10:49:53;7.60;;;1.37;;
17658;SDS011;8948;51.534;8.262;2022-12-29T11:00:19;4.43;;;1.40;;
17658;SDS011;8948;51.534;8.262;2022-12-29T11:10:41;9.17;;;1.60;;
17658;SDS011;8948;51.534;8.262;2022-12-29T11:15:47;4.67;;;1.63;;
17658;SDS011;8948;51.534;8.262;2022-12-29T11:20:49;3.40;;;1.40;;
17658;SDS011;8948;51.534;8.262;2022-12-29T11:31:17;4.67;;;1.90;;
17658;SDS011;8948;51.534;8.262;2022-12-29T11:36:22;5.13;;;1.67;;
17658;SDS011;8948;51.534;8.262;2022-12-29T11:41:27;10.93;;;2.10;;
17658;SDS011;8948;51.534;8.262;2022-12-29T11:46:31;6.00;;;1.63;;
17658;SDS011;8948;51.534;8.262;2022-12-29T11:51:38;4.73;;;1.73;;
17658;SDS011;8948;51.534;8.262;2022-12-29T11:56:45;6.67;;;2.10;;
17658;SDS011;8948;51.534;8.262;2022-12-29T12:01:46;6.57;;;1.77;;
17658;SDS011;8948;51.534;8.262;2022-12-29T12:07:00;4.23;;;1.50;;
17658;SDS011;8948;51.534;8.262;2022-12-29T12:12:02;7.00;;;1.53;;
17658;SDS011;8948;51.534;8.262;2022-12-29T12:17:06;7.30;;;1.63;;
17658;SDS011;8948;51.534;8.262;2022-12-29T12:27:36;4.33;;;1.93;;
17658;SDS011;8948;51.534;8.262;2022-12-29T13:05:07;7.47;;;1.97;;
17658;SDS011;8948;51.534;8.262;2022-12-29T13:15:46;6.53;;;1.87;;
17658;SDS011;8948;51.534;8.262;2022-12-29T13:26:27;10.23;;;2.10;;
17658;SDS011;8948;51.534;8.262;2022-12-29T13:31:36;4.93;;;1.80;;
17658;SDS011;8948;51.534;8.262;2022-12-29T13:36:53;9.03;;;2.20;;
17658;SDS011;8948;51.534;8.262;2022-12-29T13:41:57;8.10;;;2.27;;
17658;SDS011;8948;51.534;8.262;2022-12-29T13:47:00;4.10;;;2.10;;
17658;SDS011;8948;51.534;8.262;2022-12-29T13:52:11;11.57;;;2.00;;
17658;SDS011;8948;51.534;8.262;2022-12-29T13:57:40;8.60;;;2.17;;
17658;SDS011;8948;51.534;8.262;2022-12-29T14:03:04;10.50;;;2.20;;
17658;SDS011;8948;51.534;8.262;2022-12-29T14:08:32;9.43;;;2.30;;
17658;SDS011;8948;51.534;8.262;2022-12-29T14:13:36;11.10;;;2.53;;
17658;SDS011;8948;51.534;8.262;2022-12-29T14:18:43;7.50;;;2.00;;
17658;SDS011;8948;51.534;8.262;2022-12-29T14:23:48;16.03;;;3.23;;
17658;SDS011;8948;51.534;8.262;2022-12-29T14:28:50;7.53;;;2.17;;
17658;SDS011;8948;51.534;8.262;2022-12-29T14:34:15;13.20;;;2.07;;
17658;SDS011;8948;51.534;8.262;2022-12-29T14:39:37;10.43;;;2.50;;
17658;SDS011;8948;51.534;8.262;2022-12-29T14:49:49;3.87;;;1.70;;
17658;SDS011;8948;51.534;8.262;2022-12-29T14:54:57;6.10;;;1.93;;
17658;SDS011;8948;51.534;8.262;2022-12-29T15:00:27;7.90;;;1.53;;
17658;SDS011;8948;51.534;8.262;2022-12-29T15:05:36;12.27;;;2.07;;
17658;SDS011;8948;51.534;8.262;2022-12-29T15:10:55;4.53;;;1.60;;
17658;SDS011;8948;51.534;8.262;2022-12-29T15:16:00;5.80;;;1.70;;
17658;SDS011;8948;51.534;8.262;2022-12-29T15:21:02;8.67;;;1.50;;
17658;SDS011;8948;51.534;8.262;2022-12-29T15:26:05;6.90;;;1.70;;
17658;SDS011;8948;51.534;8.262;2022-12-29T15:31:14;9.97;;;1.60;;
17658;SDS011;8948;51.534;8.262;2022-12-29T15:36:24;8.40;;;1.70;;
17658;SDS011;8948;51.534;8.262;2022-12-29T15:41:41;4.97;;;1.50;;
17658;SDS011;8948;51.534;8.262;2022-12-29T15:47:11;11.50;;;2.13;;
17658;SDS011;8948;51.534;8.262;2022-12-29T15:52:20;4.67;;;1.90;;
17658;SDS011;8948;51.534;8.262;2022-12-29T15:57:24;5.17;;;1.57;;
17658;SDS011;8948;51.534;8.262;2022-12-29T16:02:26;4.50;;;1.50;;
17658;SDS011;8948;51.534;8.262;2022-12-29T16:07:29;4.90;;;1.67;;
17658;SDS011;8948;51.534;8.262;2022-12-29T16:12:33;2.10;;;1.20;;
17658;SDS011;8948;51.534;8.262;2022-12-29T16:17:37;5.57;;;1.80;;
17658;SDS011;8948;51.534;8.262;2022-12-29T16:22:54;7.13;;;1.93;;
17658;SDS011;8948;51.534;8.262;2022-12-29T16:27:56;7.40;;;1.73;;
17658;SDS011;8948;51.534;8.262;2022-12-29T16:32:57;4.30;;;1.40;;
17658;SDS011;8948;51.534;8.262;2022-12-29T16:43:23;7.77;;;1.57;;
17658;SDS011;8948;51.534;8.262;2022-12-29T16:48:49;8.40;;;1.87;;
17658;SDS011;8948;51.534;8.262;2022-12-29T16:53:53;7.13;;;1.73;;
17658;SDS011;8948;51.534;8.262;2022-12-29T16:59:04;5.77;;;1.80;;
17658;SDS011;8948;51.534;8.262;2022-12-29T17:04:10;5.70;;;1.57;;
17658;SDS011;8948;51.534;8.262;2022-12-29T17:09:30;6.63;;;1.63;;
17658;SDS011;8948;51.534;8.262;2022-12-29T17:14:35;3.67;;;1.73;;
17658;SDS011;8948;51.534;8.262;2022-12-29T17:19:37;8.60;;;1.97;;
17658;SDS011;8948;51.534;8.262;2022-12-29T17:24:38;9.63;;;2.27;;
17658;SDS011;8948;51.534;8.262;2022-12-29T17:29:39;5.60;;;2.00;;
17658;SDS011;8948;51.534;8.262;2022-12-29T17:34:41;11.30;;;2.40;;
17658;SDS011;8948;51.534;8.262;2022-12-29T17:39:42;3.13;;;1.60;;
17658;SDS011;8948;51.534;8.262;2022-12-29T17:44:42;7.03;;;1.97;;
17658;SDS011;8948;51.534;8.262;2022-12-29T17:49:43;6.83;;;2.20;;
17658;SDS011;8948;51.534;8.262;2022-12-29T17:54:45;5.83;;;1.80;;
17658;SDS011;8948;51.534;8.262;2022-12-29T17:59:49;8.13;;;2.50;;
17658;SDS011;8948;51.534;8.262;2022-12-29T18:04:50;8.60;;;2.17;;
17658;SDS011;8948;51.534;8.262;2022-12-29T18:09:51;8.97;;;2.13;;
17658;SDS011;8948;51.534;8.262;2022-12-29T18:14:52;11.13;;;2.80;;
17658;SDS011;8948;51.534;8.262;2022-12-29T18:19:52;5.47;;;1.83;;
17658;SDS011;8948;51.534;8.262;2022-12-29T18:24:54;10.47;;;2.60;;
17658;SDS011;8948;51.534;8.262;2022-12-29T18:29:55;10.47;;;2.27;;
17658;SDS011;8948;51.534;8.262;2022-12-29T18:34:56;10.17;;;2.43;;
17658;SDS011;8948;51.534;8.262;2022-12-29T18:39:56;10.37;;;2.70;;
17658;SDS011;8948;51.534;8.262;2022-12-29T18:44:58;9.83;;;2.03;;
17658;SDS011;8948;51.534;8.262;2022-12-29T18:49:58;8.10;;;2.67;;
17658;SDS011;8948;51.534;8.262;2022-12-29T18:54:59;8.13;;;2.50;;
17658;SDS011;8948;51.534;8.262;2022-12-29T18:59:59;7.43;;;2.10;;
17658;SDS011;8948;51.534;8.262;2022-12-29T19:05:00;8.20;;;2.07;;
17658;SDS011;8948;51.534;8.262;2022-12-29T19:10:01;11.93;;;2.43;;
17658;SDS011;8948;51.534;8.262;2022-12-29T19:15:01;10.30;;;2.57;;
17658;SDS011;8948;51.534;8.262;2022-12-29T19:20:06;12.13;;;2.93;;
17658;SDS011;8948;51.534;8.262;2022-12-29T19:25:18;14.97;;;2.33;;
17658;SDS011;8948;51.534;8.262;2022-12-29T19:30:19;18.57;;;2.40;;
17658;SDS011;8948;51.534;8.262;2022-12-29T19:35:20;12.37;;;2.80;;
17658;SDS011;8948;51.534;8.262;2022-12-29T19:40:23;10.40;;;2.60;;
17658;SDS011;8948;51.534;8.262;2022-12-29T19:45:24;13.17;;;2.60;;
17658;SDS011;8948;51.534;8.262;2022-12-29T19:50:24;12.10;;;2.90;;
17658;SDS011;8948;51.534;8.262;2022-12-29T19:55:25;12.17;;;2.50;;
17658;SDS011;8948;51.534;8.262;2022-12-29T20:00:26;12.57;;;2.20;;
17658;SDS011;8948;51.534;8.262;2022-12-29T20:05:26;10.57;;;2.50;;
17658;SDS011;8948;51.534;8.262;2022-12-29T20:10:27;13.03;;;2.80;;
17658;SDS011;8948;51.534;8.262;2022-12-29T20:15:27;9.93;;;2.40;;
17658;SDS011;8948;51.534;8.262;2022-12-29T20:20:28;13.43;;;2.73;;
17658;SDS011;8948;51.534;8.262;2022-12-29T20:25:31;15.10;;;2.90;;
17658;SDS011;8948;51.534;8.262;2022-12-29T20:30:32;19.77;;;3.57;;
17658;SDS011;8948;51.534;8.262;2022-12-29T20:35:33;13.27;;;3.27;;
17658;SDS011;8948;51.534;8.262;2022-12-29T20:40:34;13.37;;;3.00;;
17658;SDS011;8948;51.534;8.262;2022-12-29T20:45:35;23.50;;;3.23;;
17658;SDS011;8948;51.534;8.262;2022-12-29T20:50:35;13.53;;;3.00;;
17658;SDS011;8948;51.534;8.262;2022-12-29T20:55:36;15.33;;;2.77;;
17658;SDS011;8948;51.534;8.262;2022-12-29T21:00:37;10.07;;;2.73;;
17658;SDS011;8948;51.534;8.262;2022-12-29T21:05:37;14.20;;;2.60;;
17658;SDS011;8948;51.534;8.262;2022-12-29T21:10:38;15.90;;;3.33;;
17658;SDS011;8948;51.534;8.262;2022-12-29T21:15:39;11.13;;;2.60;;
17658;SDS011;8948;51.534;8.262;2022-12-29T21:20:39;17.63;;;3.17;;
17658;SDS011;8948;51.534;8.262;2022-12-29T21:25:42;16.97;;;3.93;;
17658;SDS011;8948;51.534;8.262;2022-12-29T21:30:43;16.17;;;3.27;;
17658;SDS011;8948;51.534;8.262;2022-12-29T21:35:44;16.67;;;3.60;;
17658;SDS011;8948;51.534;8.262;2022-12-29T21:40:45;14.93;;;3.10;;
17658;SDS011;8948;51.534;8.262;2022-12-29T21:45:48;15.17;;;2.97;;
17658;SDS011;8948;51.534;8.262;2022-12-29T21:50:50;12.23;;;2.87;;
17658;SDS011;8948;51.534;8.262;2022-12-29T21:56:15;11.83;;;2.77;;
17658;SDS011;8948;51.534;8.262;2022-12-29T22:01:17;20.63;;;4.20;;
17658;SDS011;8948;51.534;8.262;2022-12-29T22:06:37;17.90;;;3.40;;
17658;SDS011;8948;51.534;8.262;2022-12-29T22:11:56;16.13;;;3.43;;
17658;SDS011;8948;51.534;8.262;2022-12-29T22:17:15;18.90;;;4.13;;
17658;SDS011;8948;51.534;8.262;2022-12-29T22:22:15;17.87;;;3.00;;
17658;SDS011;8948;51.534;8.262;2022-12-29T22:27:16;20.30;;;3.87;;
17658;SDS011;8948;51.534;8.262;2022-12-29T22:32:16;13.57;;;3.03;;
17658;SDS011;8948;51.534;8.262;2022-12-29T22:37:17;12.97;;;3.03;;
17658;SDS011;8948;51.534;8.262;2022-12-29T22:42:18;15.00;;;3.53;;
17658;SDS011;8948;51.534;8.262;2022-12-29T22:47:19;14.33;;;2.80;;
17658;SDS011;8948;51.534;8.262;2022-12-29T22:52:19;13.30;;;2.57;;
17658;SDS011;8948;51.534;8.262;2022-12-29T22:57:20;13.27;;;2.90;;
17658;SDS011;8948;51.534;8.262;2022-12-29T23:02:20;21.13;;;3.00;;
17658;SDS011;8948;51.534;8.262;2022-12-29T23:07:21;13.90;;;2.47;;
17658;SDS011;8948;51.534;8.262;2022-12-29T23:12:21;7.30;;;2.13;;
17658;SDS011;8948;51.534;8.262;2022-12-29T23:17:22;19.20;;;3.30;;
17658;SDS011;8948;51.534;8.262;2022-12-29T23:22:24;15.87;;;3.43;;
17658;SDS011;8948;51.534;8.262;2022-12-29T23:27:24;14.00;;;3.00;;
17658;SDS011;8948;51.534;8.262;2022-12-29T23:32:25;15.53;;;3.17;;
17658;SDS011;8948;51.534;8.262;2022-12-29T23:37:25;12.73;;;2.90;;
17658;SDS011;8948;51.534;8.262;2022-12-29T23:42:26;11.40;;;2.70;;
17658;SDS011;8948;51.534;8.262;2022-12-29T23:47:26;14.53;;;2.97;;
17658;SDS011;8948;51.534;8.262;2022-12-29T23:52:27;13.07;;;2.50;;
17658;SDS011;8948;51.534;8.262;2022-12-29T23:57:27;15.43;;;3.10;;
